sensor_id;sensor_type;location;lat;lon;timestamp;pressure;altitude;pressure_sealevel;temperature;humidity
34921;BME280;21128;50.016;20.002;2023-01-09T00:01:18;97866.66;;;2.12;100.00
34921;BME280;21128;50.016;20.002;2023-01-09T00:04:04;97865.84;;;2.11;100.00
34921;BME280;21128;50.016;20.002;2023-01-09T00:06:51;97867.81;;;2.08;100.00
34921;BME280;21128;50.016;20.002;2023-01-09T00:09:40;97862.98;;;2.03;100.00
34921;BME280;21128;50.016;20.002;2023-01-09T00:12:33;97858.01;;;2.00;100.00
34921;BME280;21128;50.016;20.002;2023-01-09T00:15:20;97857.42;;;1.96;100.00
34921;BME280;21128;50.016;20.002;2023-01-09T00:18:06;97860.25;;;1.93;100.00
34921;BME280;21128;50.016;20.002;2023-01-09T00:20:51;97854.95;;;1.95;100.00
34921;BME280;21128;50.016;20.002;2023-01-09T00:23:39;97855.77;;;1.95;100.00
34921;BME280;21128;50.016;20.002;2023-01-09T00:26:31;97850.70;;;1.94;100.00
34921;BME280;21128;50.016;20.002;2023-01-09T00:29:17;97855.06;;;1.93;100.00
34921;BME280;21128;50.016;20.002;2023-01-09T00:32:03;97849.14;;;1.91;100.00
34921;BME280;21128;50.016;20.002;2023-01-09T00:34:55;97847.50;;;1.90;100.00
34921;BME280;21128;50.016;20.002;2023-01-09T00:37:41;97845.97;;;1.88;100.00
34921;BME280;21128;50.016;20.002;2023-01-09T00:40:27;97847.94;;;1.84;100.00
34921;BME280;21128;50.016;20.002;2023-01-09T00:43:13;97848.17;;;1.81;100.00
34921;BME280;21128;50.016;20.002;2023-01-09T00:46:13;97846.52;;;1.80;100.00
34921;BME280;21128;50.016;20.002;2023-01-09T00:49:02;97848.52;;;1.77;100.00
34921;BME280;21128;50.016;20.002;2023-01-09T00:51:49;97840.84;;;1.75;100.00
34921;BME280;21128;50.016;20.002;2023-01-09T00:54:38;97846.13;;;1.74;100.00
34921;BME280;21128;50.016;20.002;2023-01-09T00:57:31;97837.66;;;1.72;100.00
34921;BME280;21128;50.016;20.002;2023-01-09T01:00:18;97844.72;;;1.69;100.00
34921;BME280;21128;50.016;20.002;2023-01-09T01:03:04;97841.30;;;1.69;100.00
34921;BME280;21128;50.016;20.002;2023-01-09T01:05:49;97840.56;;;1.67;100.00
34921;BME280;21128;50.016;20.002;2023-01-09T01:08:54;97833.62;;;1.67;100.00
34921;BME280;21128;50.016;20.002;2023-01-09T01:11:43;97825.14;;;1.65;100.00
34921;BME280;21128;50.016;20.002;2023-01-09T01:14:28;97832.09;;;1.65;100.00
34921;BME280;21128;50.016;20.002;2023-01-09T01:17:17;97828.67;;;1.64;100.00
34921;BME280;21128;50.016;20.002;2023-01-09T01:20:12;97833.46;;;1.58;100.00
34921;BME280;21128;50.016;20.002;2023-01-09T01:23:06;97836.28;;;1.55;100.00
34921;BME280;21128;50.016;20.002;2023-01-09T01:25:52;97824.28;;;1.54;100.00
34921;BME280;21128;50.016;20.002;2023-01-09T01:28:45;97819.81;;;1.56;100.00
34921;BME280;21128;50.016;20.002;2023-01-09T01:31:31;97810.39;;;1.55;100.00
34921;BME280;21128;50.016;20.002;2023-01-09T01:34:17;97805.33;;;1.53;100.00
34921;BME280;21128;50.016;20.002;2023-01-09T01:37:06;97800.27;;;1.52;100.00
34921;BME280;21128;50.016;20.002;2023-01-09T01:39:54;97797.77;;;1.50;100.00
34921;BME280;21128;50.016;20.002;2023-01-09T01:42:48;97792.50;;;1.52;100.00
34921;BME280;21128;50.016;20.002;2023-01-09T01:45:48;97795.30;;;1.49;100.00
34921;BME280;21128;50.016;20.002;2023-01-09T01:48:41;97797.88;;;1.49;100.00
34921;BME280;21128;50.016;20.002;2023-01-09T01:51:29;97793.33;;;1.52;100.00
34921;BME280;21128;50.016;20.002;2023-01-09T01:54:20;97792.50;;;1.52;100.00
34921;BME280;21128;50.016;20.002;2023-01-09T01:57:14;97807.09;;;1.53;100.00
34921;BME280;21128;50.016;20.002;2023-01-09T02:00:00;97785.64;;;1.51;100.00
34921;BME280;21128;50.016;20.002;2023-01-09T02:02:47;97761.31;;;1.53;100.00
34921;BME280;21128;50.016;20.002;2023-01-09T02:05:35;97779.64;;;1.50;100.00
34921;BME280;21128;50.016;20.002;2023-01-09T02:08:22;97782.34;;;1.49;100.00
34921;BME280;21128;50.016;20.002;2023-01-09T02:11:08;97779.64;;;1.50;100.00
34921;BME280;21128;50.016;20.002;2023-01-09T02:13:58;97767.44;;;1.52;100.00
34921;BME280;21128;50.016;20.002;2023-01-09T02:17:12;97781.20;;;1.53;100.00
34921;BME280;21128;50.016;20.002;2023-01-09T02:20:51;97780.38;;;1.52;100.00
34921;BME280;21128;50.016;20.002;2023-01-09T02:26:55;97767.20;;;1.55;100.00
34921;BME280;21128;50.016;20.002;2023-01-09T02:30:25;97777.05;;;1.50;100.00
34921;BME280;21128;50.016;20.002;2023-01-09T02:42:20;97771.95;;;1.37;100.00
34921;BME280;21128;50.016;20.002;2023-01-09T02:45:19;97760.98;;;1.34;100.00
34921;BME280;21128;50.016;20.002;2023-01-09T02:48:05;97775.80;;;1.32;100.00
34921;BME280;21128;50.016;20.002;2023-01-09T02:54:01;97771.56;;;1.31;100.00
34921;BME280;21128;50.016;20.002;2023-01-09T02:57:53;97766.07;;;1.35;100.00
34921;BME280;21128;50.016;20.002;2023-01-09T03:06:52;97783.13;;;1.38;100.00
34921;BME280;21128;50.016;20.002;2023-01-09T03:09:41;97795.37;;;1.36;100.00
34921;BME280;21128;50.016;20.002;2023-01-09T03:12:31;97785.22;;;1.33;100.00
34921;BME280;21128;50.016;20.002;2023-01-09T03:15:21;97776.63;;;1.32;100.00
34921;BME280;21128;50.016;20.002;2023-01-09T03:18:18;97791.84;;;1.37;100.00
34921;BME280;21128;50.016;20.002;2023-01-09T03:21:05;97774.74;;;1.34;100.00
34921;BME280;21128;50.016;20.002;2023-01-09T03:23:55;97781.80;;;1.32;100.00
34921;BME280;21128;50.016;20.002;2023-01-09T03:26:42;97790.39;;;1.33;100.00
34921;BME280;21128;50.016;20.002;2023-01-09T03:29:34;97779.21;;;1.32;100.00
34921;BME280;21128;50.016;20.002;2023-01-09T03:32:20;97774.66;;;1.36;100.00
34921;BME280;21128;50.016;20.002;2023-01-09T03:35:07;97772.16;;;1.34;100.00
34921;BME280;21128;50.016;20.002;2023-01-09T03:37:53;97763.95;;;1.40;100.00
34921;BME280;21128;50.016;20.002;2023-01-09T03:40:39;97750.58;;;1.47;100.00
34921;BME280;21128;50.016;20.002;2023-01-09T03:43:46;97747.75;;;1.50;100.00
34921;BME280;21128;50.016;20.002;2023-01-09T03:46:32;97764.02;;;1.52;100.00
34921;BME280;21128;50.016;20.002;2023-01-09T03:49:18;97750.34;;;1.50;100.00
34921;BME280;21128;50.016;20.002;2023-01-09T03:52:04;97750.14;;;1.53;100.00
34921;BME280;21128;50.016;20.002;2023-01-09T03:54:50;97729.31;;;1.54;100.00
34921;BME280;21128;50.016;20.002;2023-01-09T03:57:36;97733.42;;;1.57;100.00
34921;BME280;21128;50.016;20.002;2023-01-09T04:00:21;97736.95;;;1.56;100.00
34921;BME280;21128;50.016;20.002;2023-01-09T04:03:15;97728.25;;;1.57;100.00
34921;BME280;21128;50.016;20.002;2023-01-09T04:06:01;97718.51;;;1.60;100.00
34921;BME280;21128;50.016;20.002;2023-01-09T04:08:47;97713.20;;;1.62;100.00
34921;BME280;21128;50.016;20.002;2023-01-09T04:11:41;97713.91;;;1.64;100.00
34921;BME280;21128;50.016;20.002;2023-01-09T04:14:27;97709.67;;;1.63;100.00
34921;BME280;21128;50.016;20.002;2023-01-09T04:17:13;97697.44;;;1.65;100.00
34921;BME280;21128;50.016;20.002;2023-01-09T04:20:01;97697.55;;;1.63;100.00
34921;BME280;21128;50.016;20.002;2023-01-09T04:22:47;97694.38;;;1.60;100.00
34921;BME280;21128;50.016;20.002;2023-01-09T04:25:33;97709.18;;;1.58;100.00
34921;BME280;21128;50.016;20.002;2023-01-09T04:28:19;97697.30;;;1.55;100.00
34921;BME280;21128;50.016;20.002;2023-01-09T04:31:04;97694.83;;;1.54;100.00
34921;BME280;21128;50.016;20.002;2023-01-09T04:33:50;97693.27;;;1.51;100.00
34921;BME280;21128;50.016;20.002;2023-01-09T04:36:36;97683.97;;;1.49;100.00
34921;BME280;21128;50.016;20.002;2023-01-09T04:39:22;97672.80;;;1.48;100.00
34921;BME280;21128;50.016;20.002;2023-01-09T04:42:09;97682.83;;;1.53;100.00
34921;BME280;21128;50.016;20.002;2023-01-09T04:45:03;97683.41;;;1.56;100.00
34921;BME280;21128;50.016;20.002;2023-01-09T04:47:55;97671.54;;;1.65;100.00
34921;BME280;21128;50.016;20.002;2023-01-09T04:50:41;97660.73;;;1.71;100.00
34921;BME280;21128;50.016;20.002;2023-01-09T04:53:27;97666.98;;;1.80;100.00
34921;BME280;21128;50.016;20.002;2023-01-09T04:56:14;97672.16;;;1.91;100.00
34921;BME280;21128;50.016;20.002;2023-01-09T04:58:59;97665.33;;;2.01;100.00
34921;BME280;21128;50.016;20.002;2023-01-09T05:01:45;97660.52;;;2.08;100.00
34921;BME280;21128;50.016;20.002;2023-01-09T05:04:38;97669.59;;;2.13;100.00
34921;BME280;21128;50.016;20.002;2023-01-09T05:07:24;97652.39;;;2.12;100.00
34921;BME280;21128;50.016;20.002;2023-01-09T05:10:17;97652.86;;;2.06;100.00
34921;BME280;21128;50.016;20.002;2023-01-09T05:13:03;97645.42;;;2.02;100.00
34921;BME280;21128;50.016;20.002;2023-01-09T05:15:48;97644.27;;;2.06;100.00
34921;BME280;21128;50.016;20.002;2023-01-09T05:18:34;97644.84;;;2.09;100.00
34921;BME280;21128;50.016;20.002;2023-01-09T05:21:21;97664.75;;;2.09;100.00
34921;BME280;21128;50.016;20.002;2023-01-09T05:24:07;97653.81;;;2.05;100.00
34921;BME280;21128;50.016;20.002;2023-01-09T05:26:52;97651.22;;;1.94;100.00
34921;BME280;21128;50.016;20.002;2023-01-09T05:29:38;97645.68;;;1.87;100.00
34921;BME280;21128;50.016;20.002;2023-01-09T05:32:24;97652.27;;;1.80;100.00
34921;BME280;21128;50.016;20.002;2023-01-09T05:35:10;97646.37;;;1.78;100.00
34921;BME280;21128;50.016;20.002;2023-01-09T05:37:56;97655.80;;;1.79;100.00
34921;BME280;21128;50.016;20.002;2023-01-09T05:40:42;97650.73;;;1.78;100.00
34921;BME280;21128;50.016;20.002;2023-01-09T05:43:35;97651.77;;;1.75;100.00
34921;BME280;21128;50.016;20.002;2023-01-09T05:46:28;97645.56;;;1.78;100.00
34921;BME280;21128;50.016;20.002;2023-01-09T05:49:14;97645.56;;;1.78;100.00
34921;BME280;21128;50.016;20.002;2023-01-09T05:52:00;97649.92;;;1.77;100.00
34921;BME280;21128;50.016;20.002;2023-01-09T05:54:46;97637.87;;;1.76;100.00
34921;BME280;21128;50.016;20.002;2023-01-09T05:57:32;97634.01;;;1.82;100.00
34921;BME280;21128;50.016;20.002;2023-01-09T06:00:18;97632.94;;;1.84;100.00
34921;BME280;21128;50.016;20.002;2023-01-09T06:03:04;97638.94;;;1.85;100.00
34921;BME280;21128;50.016;20.002;2023-01-09T06:05:57;97636.36;;;1.85;100.00
34921;BME280;21128;50.016;20.002;2023-01-09T06:08:43;97636.02;;;1.89;100.00
34921;BME280;21128;50.016;20.002;2023-01-09T06:11:28;97636.72;;;1.91;100.00
34921;BME280;21128;50.016;20.002;2023-01-09T06:14:14;97625.89;;;1.97;100.00
34921;BME280;21128;50.016;20.002;2023-01-09T06:17:00;97620.82;;;2.07;100.00
34921;BME280;21128;50.016;20.002;2023-01-09T06:19:53;97625.07;;;2.19;100.00
34921;BME280;21128;50.016;20.002;2023-01-09T06:22:38;97629.16;;;2.33;100.00
34921;BME280;21128;50.016;20.002;2023-01-09T06:25:25;97626.91;;;2.40;100.00
34921;BME280;21128;50.016;20.002;2023-01-09T06:28:11;97620.30;;;2.47;100.00
34921;BME280;21128;50.016;20.002;2023-01-09T06:30:57;97622.17;;;2.56;100.00
34921;BME280;21128;50.016;20.002;2023-01-09T06:33:49;97618.84;;;2.65;100.00
34921;BME280;21128;50.016;20.002;2023-01-09T06:36:35;97613.52;;;2.78;100.00
34921;BME280;21128;50.016;20.002;2023-01-09T06:39:21;97626.77;;;2.96;100.00
34921;BME280;21128;50.016;20.002;2023-01-09T06:42:07;97623.75;;;3.12;100.00
34921;BME280;21128;50.016;20.002;2023-01-09T06:45:13;97622.94;;;3.32;100.00
34921;BME280;21128;50.016;20.002;2023-01-09T06:48:05;97606.00;;;3.58;100.00
34921;BME280;21128;50.016;20.002;2023-01-09T06:50:52;97615.02;;;3.85;100.00
34921;BME280;21128;50.016;20.002;2023-01-09T06:53:38;97605.41;;;4.06;100.00
34921;BME280;21128;50.016;20.002;2023-01-09T06:56:24;97603.55;;;4.28;100.00
34921;BME280;21128;50.016;20.002;2023-01-09T06:59:11;97593.08;;;4.48;100.00
34921;BME280;21128;50.016;20.002;2023-01-09T07:01:56;97595.98;;;4.65;100.00
34921;BME280;21128;50.016;20.002;2023-01-09T07:04:42;97599.94;;;4.78;100.00
34921;BME280;21128;50.016;20.002;2023-01-09T07:07:28;97595.45;;;4.90;100.00
34921;BME280;21128;50.016;20.002;2023-01-09T07:10:14;97591.87;;;5.01;100.00
34921;BME280;21128;50.016;20.002;2023-01-09T07:13:00;97593.66;;;5.10;100.00
34921;BME280;21128;50.016;20.002;2023-01-09T07:15:52;97592.42;;;5.24;100.00
34921;BME280;21128;50.016;20.002;2023-01-09T07:18:38;97595.53;;;5.37;100.00
34921;BME280;21128;50.016;20.002;2023-01-09T07:21:23;97605.00;;;5.48;100.00
34921;BME280;21128;50.016;20.002;2023-01-09T07:24:09;97599.32;;;5.62;100.00
34921;BME280;21128;50.016;20.002;2023-01-09T07:26:55;97602.86;;;5.80;100.00
34921;BME280;21128;50.016;20.002;2023-01-09T07:29:47;97599.39;;;5.99;100.00
34921;BME280;21128;50.016;20.002;2023-01-09T07:32:33;97600.11;;;6.19;100.00
34921;BME280;21128;50.016;20.002;2023-01-09T07:35:25;97607.06;;;6.28;100.00
34921;BME280;21128;50.016;20.002;2023-01-09T07:38:10;97606.34;;;6.36;100.00
34921;BME280;21128;50.016;20.002;2023-01-09T07:40:56;97605.77;;;6.42;100.00
34921;BME280;21128;50.016;20.002;2023-01-09T07:43:42;97598.19;;;6.48;100.00
34921;BME280;21128;50.016;20.002;2023-01-09T07:46:35;97604.31;;;6.57;100.00
34921;BME280;21128;50.016;20.002;2023-01-09T07:49:20;97601.25;;;6.62;100.00
34921;BME280;21128;50.016;20.002;2023-01-09T07:52:06;97606.70;;;6.68;100.00
34921;BME280;21128;50.016;20.002;2023-01-09T07:54:51;97614.63;;;6.76;100.00
34921;BME280;21128;50.016;20.002;2023-01-09T07:57:37;97618.64;;;6.89;100.00
34921;BME280;21128;50.016;20.002;2023-01-09T08:00:23;97613.88;;;7.02;100.00
34921;BME280;21128;50.016;20.002;2023-01-09T08:03:08;97620.23;;;7.17;100.00
34921;BME280;21128;50.016;20.002;2023-01-09T08:05:54;97610.35;;;7.29;100.00
34921;BME280;21128;50.016;20.002;2023-01-09T08:08:40;97607.80;;;7.37;100.00
34921;BME280;21128;50.016;20.002;2023-01-09T08:11:25;97600.84;;;7.46;100.00
34921;BME280;21128;50.016;20.002;2023-01-09T08:14:17;97598.61;;;7.51;100.00
34921;BME280;21128;50.016;20.002;2023-01-09T08:17:03;97589.47;;;7.55;100.00
34921;BME280;21128;50.016;20.002;2023-01-09T08:19:49;97591.64;;;7.59;100.00
34921;BME280;21128;50.016;20.002;2023-01-09T08:22:42;97596.76;;;7.69;100.00
34921;BME280;21128;50.016;20.002;2023-01-09T08:25:29;97591.42;;;7.79;100.00
34921;BME280;21128;50.016;20.002;2023-01-09T08:28:14;97591.95;;;7.82;100.00
34921;BME280;21128;50.016;20.002;2023-01-09T08:31:00;97589.67;;;7.87;100.00
34921;BME280;21128;50.016;20.002;2023-01-09T08:33:46;97589.51;;;7.89;100.00
34921;BME280;21128;50.016;20.002;2023-01-09T08:36:38;97588.40;;;7.92;100.00
34921;BME280;21128;50.016;20.002;2023-01-09T08:39:23;97589.05;;;7.94;100.00
34921;BME280;21128;50.016;20.002;2023-01-09T08:42:09;97583.34;;;7.98;100.00
34921;BME280;21128;50.016;20.002;2023-01-09T08:45:14;97585.66;;;8.01;100.00
34921;BME280;21128;50.016;20.002;2023-01-09T08:48:26;97589.26;;;8.00;100.00
34921;BME280;21128;50.016;20.002;2023-01-09T08:51:11;97587.63;;;7.99;100.00
34921;BME280;21128;50.016;20.002;2023-01-09T08:53:57;97586.98;;;8.05;100.00
34921;BME280;21128;50.016;20.002;2023-01-09T08:56:43;97574.58;;;8.07;100.00
34921;BME280;21128;50.016;20.002;2023-01-09T08:59:28;97579.33;;;8.12;100.00
34921;BME280;21128;50.016;20.002;2023-01-09T09:02:14;97567.22;;;8.11;100.00
34921;BME280;21128;50.016;20.002;2023-01-09T09:05:00;97571.64;;;8.10;100.00
34921;BME280;21128;50.016;20.002;2023-01-09T09:07:50;97563.79;;;8.10;100.00
34921;BME280;21128;50.016;20.002;2023-01-09T09:10:38;97563.27;;;8.07;100.00
34921;BME280;21128;50.016;20.002;2023-01-09T09:13:23;97567.19;;;8.03;100.00
34921;BME280;21128;50.016;20.002;2023-01-09T09:16:09;97564.70;;;7.93;100.00
34921;BME280;21128;50.016;20.002;2023-01-09T09:18:54;97568.55;;;7.81;100.00
34921;BME280;21128;50.016;20.002;2023-01-09T09:21:46;97563.27;;;7.73;100.00
34921;BME280;21128;50.016;20.002;2023-01-09T09:24:32;97566.36;;;7.68;100.00
34921;BME280;21128;50.016;20.002;2023-01-09T09:27:18;97555.25;;;7.66;100.00
34921;BME280;21128;50.016;20.002;2023-01-09T09:30:04;97556.06;;;7.67;100.00
34921;BME280;21128;50.016;20.002;2023-01-09T09:32:51;97545.28;;;7.70;100.00
34921;BME280;21128;50.016;20.002;2023-01-09T09:35:42;97545.98;;;7.80;100.00
34921;BME280;21128;50.016;20.002;2023-01-09T09:38:35;97541.31;;;7.92;100.00
34921;BME280;21128;50.016;20.002;2023-01-09T09:41:50;97543.48;;;8.04;100.00
34921;BME280;21128;50.016;20.002;2023-01-09T09:56:57;97528.32;;;8.66;100.00
34921;BME280;21128;50.016;20.002;2023-01-09T09:59:46;97536.94;;;8.42;100.00
34921;BME280;21128;50.016;20.002;2023-01-09T10:02:49;97533.05;;;8.12;100.00
34921;BME280;21128;50.016;20.002;2023-01-09T10:05:42;97550.19;;;7.73;100.00
34921;BME280;21128;50.016;20.002;2023-01-09T10:08:54;97547.04;;;7.35;100.00
34921;BME280;21128;50.016;20.002;2023-01-09T10:14:30;97536.12;;;6.96;100.00
34921;BME280;21128;50.016;20.002;2023-01-09T10:23:55;97522.34;;;6.86;100.00
34921;BME280;21128;50.016;20.002;2023-01-09T10:26:51;97514.73;;;6.92;100.00
34921;BME280;21128;50.016;20.002;2023-01-09T10:30:10;97509.41;;;7.02;100.00
34921;BME280;21128;50.016;20.002;2023-01-09T10:33:36;97504.15;;;7.20;100.00
34921;BME280;21128;50.016;20.002;2023-01-09T10:39:42;97488.94;;;7.75;100.00
34921;BME280;21128;50.016;20.002;2023-01-09T10:42:34;97477.42;;;8.02;100.00
34921;BME280;21128;50.016;20.002;2023-01-09T10:45:47;97469.96;;;8.32;100.00
34921;BME280;21128;50.016;20.002;2023-01-09T10:48:42;97469.72;;;8.59;100.00
34921;BME280;21128;50.016;20.002;2023-01-09T10:51:54;97465.78;;;8.80;100.00
34921;BME280;21128;50.016;20.002;2023-01-09T10:54:55;97458.25;;;9.01;100.00
34921;BME280;21128;50.016;20.002;2023-01-09T10:57:45;97461.48;;;9.19;100.00
34921;BME280;21128;50.016;20.002;2023-01-09T11:00:33;97461.63;;;9.34;100.00
34921;BME280;21128;50.016;20.002;2023-01-09T11:03:21;97454.53;;;9.51;100.00
34921;BME280;21128;50.016;20.002;2023-01-09T11:06:20;97453.63;;;9.67;100.00
34921;BME280;21128;50.016;20.002;2023-01-09T11:09:07;97457.36;;;9.80;100.00
34921;BME280;21128;50.016;20.002;2023-01-09T11:11:52;97451.09;;;9.90;100.00
34921;BME280;21128;50.016;20.002;2023-01-09T11:14:38;97444.34;;;9.95;100.00
34921;BME280;21128;50.016;20.002;2023-01-09T11:17:26;97448.24;;;9.99;100.00
34921;BME280;21128;50.016;20.002;2023-01-09T11:20:20;97449.73;;;10.02;100.00
34921;BME280;21128;50.016;20.002;2023-01-09T11:23:23;97447.74;;;10.04;100.00
34921;BME280;21128;50.016;20.002;2023-01-09T11:26:24;97442.49;;;10.04;100.00
34921;BME280;21128;50.016;20.002;2023-01-09T11:29:13;97444.12;;;10.05;100.00
34921;BME280;21128;50.016;20.002;2023-01-09T11:31:59;97445.58;;;10.07;100.00
34921;BME280;21128;50.016;20.002;2023-01-09T11:34:48;97441.95;;;10.08;100.00
34921;BME280;21128;50.016;20.002;2023-01-09T11:37:40;97445.43;;;10.09;100.00
34921;BME280;21128;50.016;20.002;2023-01-09T11:40:44;97443.62;;;10.09;100.00
34921;BME280;21128;50.016;20.002;2023-01-09T11:43:36;97442.80;;;10.09;100.00
34921;BME280;21128;50.016;20.002;2023-01-09T11:46:40;97439.33;;;10.08;100.00
34921;BME280;21128;50.016;20.002;2023-01-09T11:49:30;97439.33;;;10.08;100.00
34921;BME280;21128;50.016;20.002;2023-01-09T11:52:22;97430.64;;;10.08;100.00
34921;BME280;21128;50.016;20.002;2023-01-09T11:55:12;97427.38;;;10.06;100.00
34921;BME280;21128;50.016;20.002;2023-01-09T11:58:00;97432.00;;;10.04;100.00
34921;BME280;21128;50.016;20.002;2023-01-09T12:10:04;97432.50;;;9.99;100.00
34921;BME280;21128;50.016;20.002;2023-01-09T12:25:33;97423.39;;;10.18;100.00
34921;BME280;21128;50.016;20.002;2023-01-09T12:34:51;97415.41;;;10.57;100.00
34921;BME280;21128;50.016;20.002;2023-01-09T12:44:32;97418.83;;;10.81;100.00
34921;BME280;21128;50.016;20.002;2023-01-09T12:47:46;97424.72;;;10.83;100.00
34921;BME280;21128;50.016;20.002;2023-01-09T12:53:42;97420.27;;;10.83;100.00
34921;BME280;21128;50.016;20.002;2023-01-09T12:56:32;97428.16;;;10.83;100.00
34921;BME280;21128;50.016;20.002;2023-01-09T13:02:37;97413.39;;;10.82;100.00
34921;BME280;21128;50.016;20.002;2023-01-09T13:05:36;97419.01;;;10.79;100.00
34921;BME280;21128;50.016;20.002;2023-01-09T13:08:43;97425.33;;;10.70;100.00
34921;BME280;21128;50.016;20.002;2023-01-09T13:11:39;97426.09;;;10.56;100.00
34921;BME280;21128;50.016;20.002;2023-01-09T13:14:36;97416.02;;;10.45;100.00
34921;BME280;21128;50.016;20.002;2023-01-09T13:17:36;97417.22;;;10.34;100.00
34921;BME280;21128;50.016;20.002;2023-01-09T13:20:32;97418.94;;;10.27;100.00
34921;BME280;21128;50.016;20.002;2023-01-09T13:27:08;97421.01;;;10.00;100.00
34921;BME280;21128;50.016;20.002;2023-01-09T13:30:07;97419.91;;;9.95;100.00
34921;BME280;21128;50.016;20.002;2023-01-09T13:33:21;97420.23;;;9.92;100.00
34921;BME280;21128;50.016;20.002;2023-01-09T13:36:25;97415.70;;;9.85;100.00
34921;BME280;21128;50.016;20.002;2023-01-09T13:39:23;97411.59;;;9.83;100.00
34921;BME280;21128;50.016;20.002;2023-01-09T13:42:17;97420.81;;;9.79;100.00
34921;BME280;21128;50.016;20.002;2023-01-09T13:45:24;97417.73;;;9.75;100.00
34921;BME280;21128;50.016;20.002;2023-01-09T13:48:24;97427.55;;;9.73;100.00
34921;BME280;21128;50.016;20.002;2023-01-09T13:57:42;97433.18;;;9.62;100.00
34921;BME280;21128;50.016;20.002;2023-01-09T14:03:31;97463.52;;;9.56;100.00
34921;BME280;21128;50.016;20.002;2023-01-09T14:06:24;97462.72;;;9.48;100.00
34921;BME280;21128;50.016;20.002;2023-01-09T14:09:21;97468.33;;;9.37;100.00
34921;BME280;21128;50.016;20.002;2023-01-09T14:12:15;97471.31;;;9.25;100.00
34921;BME280;21128;50.016;20.002;2023-01-09T14:15:03;97480.15;;;9.16;100.00
34921;BME280;21128;50.016;20.002;2023-01-09T14:18:00;97476.89;;;9.06;100.00
34921;BME280;21128;50.016;20.002;2023-01-09T14:21:03;97478.70;;;8.97;100.00
34921;BME280;21128;50.016;20.002;2023-01-09T14:24:01;97496.56;;;8.94;100.00
34921;BME280;21128;50.016;20.002;2023-01-09T14:26:51;97497.86;;;8.90;100.00
34921;BME280;21128;50.016;20.002;2023-01-09T14:29:43;97498.20;;;8.87;100.00
34921;BME280;21128;50.016;20.002;2023-01-09T14:38:33;97505.24;;;8.86;100.00
34921;BME280;21128;50.016;20.002;2023-01-09T14:41:36;97502.45;;;8.88;100.00
34921;BME280;21128;50.016;20.002;2023-01-09T14:45:19;97498.84;;;8.89;100.00
34921;BME280;21128;50.016;20.002;2023-01-09T14:48:19;97503.91;;;8.90;100.00
34921;BME280;21128;50.016;20.002;2023-01-09T14:51:13;97510.66;;;8.93;100.00
34921;BME280;21128;50.016;20.002;2023-01-09T14:54:05;97500.00;;;8.94;100.00
34921;BME280;21128;50.016;20.002;2023-01-09T14:56:57;97500.00;;;8.94;100.00
34921;BME280;21128;50.016;20.002;2023-01-09T14:59:57;97500.34;;;8.91;100.00
34921;BME280;21128;50.016;20.002;2023-01-09T15:02:44;97501.30;;;8.90;100.00
34921;BME280;21128;50.016;20.002;2023-01-09T15:05:32;97504.09;;;8.89;100.00
34921;BME280;21128;50.016;20.002;2023-01-09T15:08:22;97513.09;;;8.86;100.00
34921;BME280;21128;50.016;20.002;2023-01-09T15:11:10;97516.87;;;8.84;100.00
34921;BME280;21128;50.016;20.002;2023-01-09T15:14:03;97515.38;;;8.81;100.00
34921;BME280;21128;50.016;20.002;2023-01-09T15:16:50;97518.16;;;8.80;100.00
34921;BME280;21128;50.016;20.002;2023-01-09T15:19:36;97523.57;;;8.78;100.00
34921;BME280;21128;50.016;20.002;2023-01-09T15:22:33;97530.95;;;8.74;100.00
34921;BME280;21128;50.016;20.002;2023-01-09T15:31:14;97549.75;;;8.70;100.00
34921;BME280;21128;50.016;20.002;2023-01-09T15:34:02;97542.88;;;8.69;100.00
34921;BME280;21128;50.016;20.002;2023-01-09T15:36:48;97544.68;;;8.68;100.00
34921;BME280;21128;50.016;20.002;2023-01-09T15:39:36;97546.65;;;8.66;100.00
34921;BME280;21128;50.016;20.002;2023-01-09T15:42:34;97550.22;;;8.65;100.00
34921;BME280;21128;50.016;20.002;2023-01-09T15:45:47;97557.42;;;8.63;100.00
34921;BME280;21128;50.016;20.002;2023-01-09T15:48:34;97560.67;;;8.57;100.00
34921;BME280;21128;50.016;20.002;2023-01-09T15:51:21;97571.31;;;8.56;100.00
34921;BME280;21128;50.016;20.002;2023-01-09T15:54:13;97573.28;;;8.54;100.00
34921;BME280;21128;50.016;20.002;2023-01-09T16:00:38;97585.89;;;8.50;100.00
34921;BME280;21128;50.016;20.002;2023-01-09T16:03:26;97589.45;;;8.49;100.00
34921;BME280;21128;50.016;20.002;2023-01-09T16:06:26;97593.73;;;8.50;100.00
34921;BME280;21128;50.016;20.002;2023-01-09T16:09:19;97601.91;;;8.55;100.00
34921;BME280;21128;50.016;20.002;2023-01-09T16:12:17;97604.23;;;8.58;100.00
34921;BME280;21128;50.016;20.002;2023-01-09T16:15:14;97600.47;;;8.61;100.00
34921;BME280;21128;50.016;20.002;2023-01-09T16:18:28;97606.52;;;8.61;100.00
34921;BME280;21128;50.016;20.002;2023-01-09T16:21:35;97619.78;;;8.60;100.00
34921;BME280;21128;50.016;20.002;2023-01-09T16:24:27;97618.61;;;8.54;100.00
34921;BME280;21128;50.016;20.002;2023-01-09T16:30:26;97625.13;;;8.42;100.00
34921;BME280;21128;50.016;20.002;2023-01-09T16:33:19;97625.88;;;8.34;100.00
34921;BME280;21128;50.016;20.002;2023-01-09T16:36:06;97616.19;;;8.27;100.00
34921;BME280;21128;50.016;20.002;2023-01-09T16:38:55;97622.86;;;8.21;100.00
34921;BME280;21128;50.016;20.002;2023-01-09T16:41:48;97623.34;;;8.16;100.00
34921;BME280;21128;50.016;20.002;2023-01-09T16:44:53;97625.28;;;8.14;100.00
34921;BME280;21128;50.016;20.002;2023-01-09T16:47:52;97619.39;;;8.12;100.00
34921;BME280;21128;50.016;20.002;2023-01-09T16:50:37;97622.98;;;8.11;100.00
34921;BME280;21128;50.016;20.002;2023-01-09T16:53:25;97622.33;;;8.09;100.00
34921;BME280;21128;50.016;20.002;2023-01-09T16:56:23;97632.14;;;8.07;100.00